Northeast Coast - Cape St. John and south: Past 24 Hour Conditions

 

J.A. Douglas McCurdy Sydney Airport

08:00 PM AST 22 November 2014
This table is a summary of hourly weather conditions for the past 24 hours.
Date / Time
(AST)
Wind(knots) Conditions Visibility(km) Pressure(kPa) Air tempC) Relative humidity(%) Dew pointC) Wind Chill
22 November 2014
20:00 SW 8 Mainly Clear 24 101.3 -4 66 -9 -9
19:00 WSW 11 Partly Cloudy 24 101.4 -4 65 -10 -11
18:00 SW 9 gust 19 Mostly Cloudy 24 101.4 -4 64 -10 -10
17:00 WSW 10 gust 17 Mostly Cloudy 16 101.5 -4 75 -8 -10
16:00 WSW 15 gust 23 Partly Cloudy 24 101.5 -4 67 -9 -11
15:00 W 18 gust 24 Mostly Cloudy 24 101.5 -3 58 -10 -11
14:00 W 15 gust 27 Partly Cloudy 24 101.6 -3 57 -11 -10
13:00 W 18 gust 27 Light Snowshower 8 101.6 -3 70 -8 -10
12:00 WNW 15 gust 26 Partly Cloudy 24 101.6 -2 69 -7 -9
11:00 W 16 gust 25 Partly Cloudy 24 101.6 -3 74 -7 -10
10:00 WNW 8 gust 15 Mostly Cloudy 24 101.7 -3 84 -5 -8
9:00 W 12 gust 20 Light Snowshower 6 101.6 -4 88 -6 -10
8:00 W 12 Partly Cloudy 24 101.5 -4 72 -8 -11
7:00 WNW 8 Mainly Clear 24 101.5 -5 77 -8 -11
6:00 WNW 14 gust 25 Mainly Clear 24 101.3 -4 77 -8 -11
5:00 WNW 11 gust 17 Light Snowshower 16 101.3 -5 79 -8 -11
4:00 WNW 12 Light Snowshower 16 101.2 -5 79 -8 -12
3:00 NW 10 Mostly Cloudy 16 101.1 -4 88 -6 -10
2:00 WNW 13 gust 19 Partly Cloudy 24 101.0 -4 83 -7 -11
1:00 WNW 9 Mostly Cloudy 24 101.0 -4 87 -6 -9
0:00 WNW 15 gust 22 Partly Cloudy 24 100.9 -4 83 -6 -11
21 November 2014
23:00 WNW 11 gust 18 Partly Cloudy 24 100.8 -4 82 -6 -10
22:00 W 12 gust 18 Light Snowshower 6 100.8 -3 90 -5 -10
21:00 W 12 gust 20 Light Snowshower 6 100.8 -4 93 -5 -10
20:00 W 10 Light Snowshower 24 100.7 -4 92 -5 -10
 
Map of Atlantic - Newfoundland marine weather areas Southwestern Grand Banks - 44138 Banquereau - 44139 Tail of the Bank - 44140 Nickerson Bank - 44251 Northeast Burgeo Bank - 44255 Blanc-Sablon Airport Cap Whittle Chevery Natashquan Airport Heath Point Miscou Island Grand Étang Ingonish Beach North Mountain St.Paul Island J.A. Douglas McCurdy Sydney Airport Charlottetown Airport East Point North Cape Argentia Bonavista Burgeo Cape Race Corner Brook Daniel's Harbour Englee Ferolle Point La Scie Port aux Basques Rocky Harbour Sagona Island St. Anthony Airport St. John's Int'l Airport St. Lawrence Stephenville Airport Twillingate Winterland Wreckhouse Cartwright Airport Mary's Harbour Grates Cove Pool's Island Marticot Island Long Pond Îles de la Madeleine Airport
Legend: buoyBuoy land stationLand Station